createdAt,value
2017-12-12T00:00:23.733Z,93354.07
2017-12-12T00:02:51.189Z,93363.41
2017-12-12T00:05:18.765Z,93385.03
2017-12-12T00:07:46.217Z,93381.78
2017-12-12T00:10:13.678Z,93379.09
2017-12-12T00:12:41.161Z,93381.78
2017-12-12T00:15:08.628Z,93379.86
2017-12-12T00:17:36.102Z,93388.25
2017-12-12T00:20:03.612Z,93395.72
2017-12-12T00:22:43.068Z,93395.88
2017-12-12T00:25:10.659Z,93393.09
2017-12-12T00:27:38.106Z,93409.20
2017-12-12T00:30:05.561Z,93406.80
2017-12-12T00:32:33.056Z,93409.13
2017-12-12T00:35:00.508Z,93413.38
2017-12-12T00:37:27.983Z,93429.96
2017-12-12T00:39:55.453Z,93432.68
2017-12-12T00:42:22.925Z,93437.91
2017-12-12T00:44:50.381Z,93453.28
2017-12-12T00:47:17.857Z,93463.09
2017-12-12T00:49:45.321Z,93461.52
2017-12-12T00:52:12.811Z,93472.49
2017-12-12T00:54:41.141Z,93468.35
2017-12-12T00:57:08.613Z,93482.31
2017-12-12T00:59:36.135Z,93489.45
2017-12-12T01:02:03.650Z,93489.78
2017-12-12T01:04:31.084Z,93501.55
2017-12-12T01:06:58.557Z,93516.08
2017-12-12T01:09:26.105Z,93517.66
2017-12-12T01:11:53.581Z,93520.31
2017-12-12T01:14:21.085Z,93527.56
2017-12-12T01:16:48.561Z,93527.71
2017-12-12T01:19:16.017Z,93531.80
2017-12-12T01:21:43.496Z,93544.22
2017-12-12T01:24:10.953Z,93535.47
2017-12-12T01:26:38.432Z,93539.73
2017-12-12T01:31:56.325Z,93562.13
2017-12-12T01:34:23.781Z,93561.44
2017-12-12T01:36:51.249Z,93560.92
2017-12-12T01:39:18.705Z,93564.16
2017-12-12T01:41:46.174Z,93558.27
2017-12-12T01:44:13.632Z,93563.69
2017-12-12T01:46:41.105Z,93559.84
2017-12-12T01:49:08.560Z,93562.38
2017-12-12T01:51:36.032Z,93573.66
2017-12-12T01:54:03.484Z,93579.75
2017-12-12T01:56:30.976Z,93571.53
2017-12-12T01:58:58.433Z,93579.27
2017-12-12T02:01:25.910Z,93571.05
2017-12-12T02:03:53.365Z,93563.56
2017-12-12T02:06:20.930Z,93568.42
2017-12-12T02:08:48.393Z,93568.89
2017-12-12T02:11:15.953Z,93557.72
2017-12-12T02:13:43.422Z,93560.53
2017-12-12T02:16:10.892Z,93555.91
2017-12-12T02:18:38.345Z,93549.53
2017-12-12T02:21:05.813Z,93536.27
2017-12-12T02:23:33.264Z,93541.88
2017-12-12T02:26:00.739Z,93537.51
2017-12-12T02:28:28.194Z,93548.95
2017-12-12T02:30:55.665Z,93552.60
2017-12-12T02:33:23.125Z,93558.02
2017-12-12T02:35:50.578Z,93561.05
2017-12-12T02:38:18.053Z,93563.92
2017-12-12T02:40:45.509Z,93565.45
2017-12-12T02:43:13.065Z,93566.65
2017-12-12T02:45:40.522Z,93572.61
2017-12-12T02:48:07.993Z,93574.35
2017-12-12T02:50:35.449Z,93578.71
2017-12-12T02:53:02.925Z,93591.36
2017-12-12T02:55:30.382Z,93595.28
2017-12-12T02:57:57.864Z,93603.42
2017-12-12T03:00:25.321Z,93614.03
2017-12-12T03:02:52.790Z,93621.95
2017-12-12T03:05:20.245Z,93632.65
2017-12-12T03:07:47.717Z,93641.42
2017-12-12T03:10:15.164Z,93638.95
2017-12-12T03:12:42.637Z,93650.19
2017-12-12T03:15:10.089Z,93656.50
2017-12-12T03:17:37.567Z,93653.84
2017-12-12T03:20:05.025Z,93658.78
2017-12-12T03:22:32.492Z,93669.80
2017-12-12T03:24:59.977Z,93662.70
2017-12-12T03:27:27.449Z,93653.78
2017-12-12T03:29:54.909Z,93660.94
2017-12-12T03:32:22.380Z,93667.05
2017-12-12T03:34:49.837Z,93685.45
2017-12-12T03:37:17.315Z,93686.05
2017-12-12T03:39:44.773Z,93685.19
2017-12-12T03:42:12.252Z,93699.91
2017-12-12T03:44:39.712Z,93694.63
2017-12-12T03:47:07.180Z,93711.18
2017-12-12T03:49:34.642Z,93722.95
2017-12-12T03:52:02.117Z,93734.01
2017-12-12T03:54:29.573Z,93730.27
2017-12-12T03:56:57.040Z,93739.67
2017-12-12T03:59:24.501Z,93738.53
2017-12-12T04:01:51.973Z,93741.48
2017-12-12T04:04:19.438Z,93739.11
2017-12-12T04:06:46.905Z,93736.34
2017-12-12T04:09:14.406Z,93742.94
2017-12-12T04:11:41.869Z,93737.34
2017-12-12T04:14:09.349Z,93737.63
2017-12-12T04:16:36.804Z,93729.20
2017-12-12T04:19:04.278Z,93732.68
2017-12-12T04:21:31.736Z,93749.59
2017-12-12T04:23:59.209Z,93745.89
2017-12-12T04:26:26.668Z,93756.77
2017-12-12T04:28:54.145Z,93764.09
2017-12-12T04:31:21.600Z,93766.53
2017-12-12T04:33:49.083Z,93797.98
2017-12-12T04:36:16.540Z,93807.80
2017-12-12T04:38:44.100Z,93804.16
2017-12-12T04:41:11.554Z,93810.16
2017-12-12T04:43:39.026Z,93811.14
2017-12-12T04:46:06.491Z,93819.25
2017-12-12T04:48:33.966Z,93818.39
2017-12-12T04:51:01.437Z,93807.26
2017-12-12T04:53:28.921Z,93809.98
2017-12-12T04:55:56.378Z,93808.94
2017-12-12T04:58:23.853Z,93815.38
2017-12-12T05:00:51.310Z,93826.02
2017-12-12T05:03:18.875Z,93853.77
2017-12-12T05:05:46.336Z,93874.94
2017-12-12T05:08:13.809Z,93884.68
2017-12-12T05:10:41.269Z,93892.77
2017-12-12T05:13:08.749Z,93908.98
2017-12-12T05:15:36.200Z,93917.13
2017-12-12T05:18:03.677Z,93928.13
2017-12-12T05:20:31.129Z,93933.34
2017-12-12T05:22:58.596Z,93936.47
2017-12-12T05:25:26.049Z,93945.42
2017-12-12T05:27:53.521Z,93940.64
2017-12-12T05:30:21.005Z,93956.02
2017-12-12T05:32:48.485Z,93963.83
2017-12-12T05:35:15.937Z,93955.07
2017-12-12T05:37:43.413Z,93964.48
2017-12-12T05:40:10.874Z,93973.09
2017-12-12T05:42:38.344Z,93976.09
2017-12-12T05:45:05.807Z,93988.28
2017-12-12T05:47:33.258Z,94003.59
2017-12-12T05:50:00.736Z,93999.17
2017-12-12T05:52:28.225Z,94005.94
2017-12-12T05:54:55.697Z,93997.30
2017-12-12T05:57:23.161Z,94007.86
2017-12-12T05:59:50.697Z,94043.03
2017-12-12T06:02:18.149Z,94052.77
2017-12-12T06:04:45.616Z,94067.92
2017-12-12T06:07:13.158Z,94015.44
2017-12-12T06:09:40.632Z,94075.99
2017-12-12T06:12:08.093Z,94084.59
2017-12-12T06:14:35.583Z,94067.41
2017-12-12T06:17:03.045Z,94043.39
2017-12-12T06:19:30.559Z,94079.02
2017-12-12T06:21:58.017Z,94075.23
2017-12-12T06:24:25.493Z,94094.92
2017-12-12T06:26:52.953Z,94099.03
2017-12-12T06:29:20.429Z,94111.30
2017-12-12T06:31:47.889Z,94131.44
2017-12-12T06:34:15.408Z,94146.77
2017-12-12T06:36:42.884Z,94154.11
2017-12-12T06:39:10.359Z,94168.64
2017-12-12T06:41:38.040Z,94178.22
2017-12-12T06:44:05.512Z,94187.28
2017-12-12T06:46:32.974Z,94214.35
2017-12-12T06:49:00.448Z,94225.05
2017-12-12T06:51:27.905Z,94248.28
2017-12-12T06:53:55.378Z,94247.39
2017-12-12T06:56:22.841Z,94257.10
2017-12-12T06:58:50.320Z,94273.42
2017-12-12T07:01:17.768Z,94272.11
2017-12-12T07:03:45.241Z,94278.84
2017-12-12T07:06:12.692Z,94287.78
2017-12-12T07:08:40.169Z,94296.17
2017-12-12T07:11:07.674Z,94307.06
2017-12-12T07:13:35.153Z,94308.69
2017-12-12T07:16:02.610Z,94318.98
2017-12-12T07:18:30.092Z,94335.83
2017-12-12T07:20:57.544Z,94339.67
2017-12-12T07:23:25.024Z,94330.56
2017-12-12T07:25:52.481Z,94334.56
2017-12-12T07:28:19.957Z,94335.38
2017-12-12T07:30:47.420Z,94337.08
2017-12-12T07:33:14.912Z,94330.41
2017-12-12T07:35:42.373Z,94344.81
2017-12-12T07:38:09.853Z,94356.30
2017-12-12T07:40:37.305Z,94372.81
2017-12-12T07:43:04.772Z,94379.97
2017-12-12T07:45:32.232Z,94369.99
2017-12-12T07:47:59.709Z,94380.93
2017-12-12T07:50:27.176Z,94390.51
2017-12-12T07:52:54.644Z,94397.98
2017-12-12T07:55:22.102Z,94424.47
2017-12-12T07:57:49.573Z,94439.13
2017-12-12T08:00:17.037Z,94445.73
2017-12-12T08:02:44.496Z,94456.27
2017-12-12T08:05:12.006Z,94477.45
2017-12-12T08:07:39.460Z,94484.85
2017-12-12T08:10:06.937Z,94491.02
2017-12-12T08:12:34.397Z,94511.13
2017-12-12T08:15:01.870Z,94518.13
2017-12-12T08:17:29.339Z,94532.20
2017-12-12T08:19:56.819Z,94541.23
2017-12-12T08:22:24.272Z,94547.78
2017-12-12T08:24:51.749Z,94550.57
2017-12-12T08:27:19.200Z,94551.17
2017-12-12T08:29:46.656Z,94569.46
2017-12-12T08:32:14.129Z,94568.07
2017-12-12T08:34:41.581Z,94569.46
2017-12-12T08:37:09.061Z,94588.77
2017-12-12T08:39:36.517Z,94607.17
2017-12-12T08:42:03.997Z,94616.18
2017-12-12T08:44:31.448Z,94620.54
2017-12-12T08:46:59.022Z,94619.09
2017-12-12T08:49:26.481Z,94639.48
2017-12-12T08:51:53.957Z,94642.97
2017-12-12T08:54:21.421Z,94648.98
2017-12-12T08:56:48.889Z,94658.50
2017-12-12T08:59:16.344Z,94665.47
2017-12-12T09:01:43.825Z,94672.99
2017-12-12T09:04:11.284Z,94676.12
2017-12-12T09:06:38.756Z,94687.94
2017-12-12T09:09:06.210Z,94686.20
2017-12-12T09:11:33.680Z,94695.44
2017-12-12T09:14:01.137Z,94702.59
2017-12-12T09:16:28.613Z,94702.19
2017-12-12T09:18:56.081Z,94697.38
2017-12-12T09:21:23.627Z,94724.77
2017-12-12T09:23:51.085Z,94734.02
2017-12-12T09:26:18.561Z,94736.20
2017-12-12T09:28:46.029Z,94737.97
2017-12-12T09:31:13.501Z,94757.50
2017-12-12T09:33:40.957Z,94763.92
2017-12-12T09:36:08.413Z,94762.27
2017-12-12T09:38:35.883Z,94763.38
2017-12-12T09:41:03.341Z,94768.25
2017-12-12T09:43:30.813Z,94776.45
2017-12-12T09:45:58.277Z,94784.72
2017-12-12T09:48:25.749Z,94773.27
2017-12-12T09:50:53.200Z,94775.25
2017-12-12T09:53:20.670Z,94778.41
2017-12-12T09:55:48.133Z,94780.02
2017-12-12T09:58:15.613Z,94792.11
2017-12-12T10:00:43.064Z,94796.33
2017-12-12T10:03:10.540Z,94812.17
2017-12-12T10:05:38.008Z,94808.70
2017-12-12T10:08:05.481Z,94816.75
2017-12-12T10:10:32.933Z,94801.97
2017-12-12T10:13:00.401Z,94800.51
2017-12-12T10:15:27.856Z,94822.16
2017-12-12T10:17:55.333Z,94818.54
2017-12-12T10:20:22.788Z,94815.25
2017-12-12T10:22:50.265Z,94818.30
2017-12-12T10:25:17.721Z,94815.65
2017-12-12T10:27:45.197Z,94821.80
2017-12-12T10:30:12.666Z,94828.31
2017-12-12T10:32:40.138Z,94838.38
2017-12-12T10:35:07.589Z,94822.97
2017-12-12T10:37:35.058Z,94832.47
2017-12-12T10:40:02.509Z,94837.30
2017-12-12T10:42:29.981Z,94840.93
2017-12-12T10:44:57.447Z,94842.80
2017-12-12T10:47:24.967Z,94831.25
2017-12-12T10:49:52.425Z,94838.30
2017-12-12T10:52:19.901Z,94829.31
2017-12-12T10:54:47.362Z,94834.20
2017-12-12T10:57:14.831Z,94847.35
2017-12-12T10:59:42.294Z,94850.31
2017-12-12T11:02:09.769Z,94845.30
2017-12-12T11:04:37.224Z,94858.45
2017-12-12T11:07:04.696Z,94853.76
2017-12-12T11:09:32.153Z,94860.75
2017-12-12T11:11:59.604Z,94865.78
2017-12-12T11:14:27.085Z,94865.98
2017-12-12T11:16:54.537Z,94870.09
2017-12-12T11:19:22.013Z,94872.53
2017-12-12T11:21:49.473Z,94864.39
2017-12-12T11:24:16.949Z,94865.97
2017-12-12T11:26:44.400Z,94868.61
2017-12-12T11:29:11.878Z,94871.11
2017-12-12T11:31:39.331Z,94877.98
2017-12-12T11:34:06.805Z,94881.38
2017-12-12T11:36:34.272Z,94889.02
2017-12-12T11:39:01.743Z,94891.90
2017-12-12T11:41:29.214Z,94897.21
2017-12-12T11:43:56.701Z,94896.17
2017-12-12T11:46:24.161Z,94909.27
2017-12-12T11:48:51.641Z,94913.80
2017-12-12T11:51:19.097Z,94912.39
2017-12-12T11:53:46.699Z,94903.20
2017-12-12T11:56:14.156Z,94900.80
2017-12-12T11:58:41.629Z,94912.77
2017-12-12T12:01:09.080Z,94918.97
2017-12-12T12:03:36.549Z,94918.23
2017-12-12T12:06:04.005Z,94918.45
2017-12-12T12:08:31.543Z,94922.44
2017-12-12T12:10:58.998Z,94933.58
2017-12-12T12:13:26.477Z,94922.02
2017-12-12T12:15:53.937Z,94916.83
2017-12-12T12:18:21.413Z,94919.98
2017-12-12T12:20:48.872Z,94927.14
2017-12-12T12:23:16.352Z,94934.39
2017-12-12T12:25:43.804Z,94933.86
2017-12-12T12:28:11.293Z,94941.49
2017-12-12T12:30:38.758Z,94947.28
2017-12-12T12:33:06.245Z,94949.44
2017-12-12T12:35:33.701Z,94946.91
2017-12-12T12:38:01.180Z,94948.69
2017-12-12T12:40:28.634Z,94958.14
2017-12-12T12:42:56.104Z,94961.78
2017-12-12T12:45:23.568Z,94954.27
2017-12-12T12:47:51.047Z,94949.86
2017-12-12T12:50:18.511Z,94948.47
2017-12-12T12:52:46.082Z,94950.12
2017-12-12T12:55:13.544Z,94949.34
2017-12-12T12:57:41.140Z,94958.00
2017-12-12T13:00:08.742Z,94973.48
2017-12-12T13:02:36.223Z,94973.38
2017-12-12T13:05:03.684Z,94981.05
2017-12-12T13:07:31.185Z,94973.64
2017-12-12T13:09:58.645Z,94972.17
2017-12-12T13:12:26.117Z,94975.31
2017-12-12T13:14:53.588Z,94978.41
2017-12-12T13:17:21.057Z,94985.68
2017-12-12T13:19:48.512Z,94995.81
2017-12-12T13:22:16.037Z,95005.78
2017-12-12T13:24:43.488Z,95007.55
2017-12-12T13:27:10.968Z,95016.66
2017-12-12T13:29:38.420Z,95019.13
2017-12-12T13:32:05.877Z,95010.26
2017-12-12T13:34:33.345Z,95012.98
2017-12-12T13:37:00.814Z,95022.04
2017-12-12T13:39:28.293Z,95022.80
2017-12-12T13:41:55.757Z,95023.48
2017-12-12T13:44:23.232Z,95031.34
2017-12-12T13:46:50.680Z,95036.67
2017-12-12T13:49:18.166Z,95032.89
2017-12-12T13:51:45.630Z,95038.93
2017-12-12T13:54:13.117Z,95039.48
2017-12-12T13:56:40.577Z,95039.23
2017-12-12T13:59:08.057Z,95044.08
2017-12-12T14:01:35.512Z,95054.33
2017-12-12T14:04:02.991Z,95060.56
2017-12-12T14:06:30.452Z,95067.45
2017-12-12T14:08:57.931Z,95073.88
2017-12-12T14:11:25.393Z,95078.92
2017-12-12T14:13:52.869Z,95082.73
2017-12-12T14:16:20.320Z,95074.34
2017-12-12T14:18:47.801Z,95079.88
2017-12-12T14:21:15.263Z,95099.80
2017-12-12T14:23:42.720Z,95101.31
2017-12-12T14:26:10.205Z,95104.40
2017-12-12T14:28:37.665Z,95106.50
2017-12-12T14:31:05.141Z,95108.41
2017-12-12T14:33:32.596Z,95111.62
2017-12-12T14:36:00.081Z,95109.01
2017-12-12T14:38:27.553Z,95115.59
2017-12-12T14:40:55.103Z,95121.23
2017-12-12T14:43:22.570Z,95130.36
2017-12-12T14:45:50.049Z,95124.05
2017-12-12T14:48:17.509Z,95138.72
2017-12-12T14:50:44.989Z,95138.02
2017-12-12T14:53:12.469Z,95130.17
2017-12-12T14:55:39.957Z,95117.33
2017-12-12T14:58:08.351Z,95128.43
2017-12-12T15:00:35.812Z,95127.34
2017-12-12T15:03:03.293Z,95122.73
2017-12-12T15:05:30.761Z,95124.97
2017-12-12T15:07:58.237Z,95136.58
2017-12-12T15:10:25.721Z,95132.24
2017-12-12T15:12:53.193Z,95128.22
2017-12-12T15:15:20.660Z,95136.64
2017-12-12T15:17:48.140Z,95131.96
2017-12-12T15:20:15.608Z,95144.55
2017-12-12T15:22:43.085Z,95150.12
2017-12-12T15:25:10.566Z,95153.63
2017-12-12T15:27:38.048Z,95158.63
2017-12-12T15:30:05.517Z,95158.39
2017-12-12T15:32:33.002Z,95166.33
2017-12-12T15:35:00.461Z,95167.34
2017-12-12T15:37:27.940Z,95179.95
2017-12-12T15:39:55.404Z,95173.75
2017-12-12T15:42:22.895Z,95177.66
2017-12-12T15:44:50.400Z,95189.39
2017-12-12T15:47:17.869Z,95190.44
2017-12-12T15:49:45.357Z,95196.16
2017-12-12T15:52:12.820Z,95198.44
2017-12-12T15:54:40.301Z,95199.63
2017-12-12T15:57:07.764Z,95201.44
2017-12-12T15:59:35.245Z,95199.88
2017-12-12T16:02:02.713Z,95207.19
2017-12-12T16:04:30.179Z,95205.49
2017-12-12T16:06:57.662Z,95206.84
2017-12-12T16:09:25.124Z,95207.64
2017-12-12T16:11:52.719Z,95207.25
2017-12-12T16:14:20.180Z,95212.81
2017-12-12T16:16:47.668Z,95210.22
2017-12-12T16:19:15.134Z,95217.88
2017-12-12T16:21:42.597Z,95222.63
2017-12-12T16:24:10.086Z,95227.53
2017-12-12T16:26:37.575Z,95238.09
2017-12-12T16:29:05.038Z,95239.55
2017-12-12T16:31:32.525Z,95240.05
2017-12-12T16:33:59.989Z,95243.91
2017-12-12T16:36:27.453Z,95247.42
2017-12-12T16:38:54.938Z,95240.45
2017-12-12T16:41:22.404Z,95240.72
2017-12-12T16:43:49.877Z,95247.88
2017-12-12T16:46:17.364Z,95247.13
2017-12-12T16:48:44.828Z,95249.27
2017-12-12T16:51:12.293Z,95246.88
2017-12-12T16:53:39.772Z,95257.48
2017-12-12T16:56:07.237Z,95259.90
2017-12-12T16:58:34.701Z,95260.73
2017-12-12T17:01:02.189Z,95262.09
2017-12-12T17:03:29.661Z,95266.80
2017-12-12T17:05:57.133Z,95273.31
2017-12-12T17:08:24.617Z,95274.77
2017-12-12T17:10:52.106Z,95273.96
2017-12-12T17:13:19.569Z,95274.47
2017-12-12T17:15:47.079Z,95271.96
2017-12-12T17:18:14.549Z,95280.52
2017-12-12T17:20:42.033Z,95288.08
2017-12-12T17:23:09.497Z,95292.84
2017-12-12T17:25:37.078Z,95305.22
2017-12-12T17:28:04.549Z,95298.80
2017-12-12T17:30:32.012Z,95304.67
2017-12-12T17:32:59.492Z,95309.97
2017-12-12T17:35:26.961Z,95315.78
2017-12-12T17:37:54.445Z,95324.85
2017-12-12T17:40:21.909Z,95323.80
2017-12-12T17:42:49.381Z,95323.64
2017-12-12T17:45:16.861Z,95330.60
2017-12-12T17:47:44.326Z,95332.60
2017-12-12T17:50:11.814Z,95339.25
2017-12-12T17:52:39.289Z,95354.50
2017-12-12T17:55:06.810Z,95357.16
2017-12-12T17:57:34.296Z,95355.09
2017-12-12T18:00:01.776Z,95357.75
2017-12-12T18:02:29.259Z,95368.17
2017-12-12T18:04:56.727Z,95373.23
2017-12-12T18:07:24.214Z,95373.63
2017-12-12T18:09:51.681Z,95388.78
2017-12-12T18:12:19.149Z,95392.50
2017-12-12T18:14:46.629Z,95392.88
2017-12-12T18:17:14.089Z,95388.50
2017-12-12T18:19:41.573Z,95391.34
2017-12-12T18:22:09.143Z,95387.30
2017-12-12T18:24:36.608Z,95399.23
2017-12-12T18:27:04.090Z,95394.81
2017-12-12T18:29:31.552Z,95400.52
2017-12-12T18:31:59.021Z,95403.70
2017-12-12T18:34:26.509Z,95403.22
2017-12-12T18:36:53.973Z,95413.88
2017-12-12T18:39:21.446Z,95409.16
2017-12-12T18:41:48.933Z,95414.53
2017-12-12T18:44:16.400Z,95408.67
2017-12-12T18:46:43.860Z,95411.30
2017-12-12T18:49:11.345Z,95415.70
2017-12-12T18:51:38.813Z,95415.66
2017-12-12T18:54:06.277Z,95413.00
2017-12-12T18:56:33.756Z,95412.87
2017-12-12T18:59:01.216Z,95414.05
2017-12-12T19:01:28.676Z,95411.09
2017-12-12T19:03:56.157Z,95416.02
2017-12-12T19:06:23.679Z,95407.52
2017-12-12T19:08:51.240Z,95407.59
2017-12-12T19:11:18.724Z,95398.28
2017-12-12T19:13:46.247Z,95394.31
2017-12-12T19:16:13.716Z,95399.81
2017-12-12T19:18:41.197Z,95414.09
2017-12-12T19:21:08.661Z,95413.42
2017-12-12T19:23:36.124Z,95413.34
2017-12-12T19:26:03.605Z,95418.93
2017-12-12T19:28:31.068Z,95430.50
2017-12-12T19:30:58.553Z,95431.30
2017-12-12T19:33:26.077Z,95434.66
2017-12-12T19:35:53.516Z,95434.92
2017-12-12T19:38:21.006Z,95448.36
2017-12-12T19:40:48.476Z,95450.52
2017-12-12T19:43:15.956Z,95450.73
2017-12-12T19:45:43.440Z,95451.49
2017-12-12T19:48:10.925Z,95462.62
2017-12-12T19:50:38.389Z,95470.44
2017-12-12T19:53:05.853Z,95472.72
2017-12-12T19:55:33.339Z,95470.71
2017-12-12T19:58:00.800Z,95477.27
2017-12-12T20:00:28.289Z,95479.65
2017-12-12T20:02:55.747Z,95486.17
2017-12-12T20:05:23.213Z,95488.22
2017-12-12T20:07:50.725Z,95489.95
2017-12-12T20:10:18.225Z,95493.98
2017-12-12T20:12:45.709Z,95488.33
2017-12-12T20:15:13.272Z,95494.21
2017-12-12T20:17:40.789Z,95492.27
2017-12-12T20:20:08.428Z,95506.33
2017-12-12T20:22:35.921Z,95506.01
2017-12-12T20:25:03.408Z,95503.58
2017-12-12T20:27:30.868Z,95503.59
2017-12-12T20:29:58.355Z,95505.65
2017-12-12T20:32:25.845Z,95500.23
2017-12-12T20:34:53.429Z,95504.50
2017-12-12T20:37:20.953Z,95499.00
2017-12-12T20:39:48.431Z,95502.41
2017-12-12T20:42:15.945Z,95503.83
2017-12-12T20:44:43.435Z,95513.16
2017-12-12T20:47:10.933Z,95521.41
2017-12-12T20:49:38.444Z,95525.00
2017-12-12T20:52:05.937Z,95525.92
2017-12-12T20:54:33.453Z,95534.23
2017-12-12T20:57:00.892Z,95535.12
2017-12-12T20:59:28.381Z,95536.48
2017-12-12T21:01:55.861Z,95532.27
2017-12-12T21:06:50.108Z,95534.35
2017-12-12T21:09:17.755Z,95538.39
2017-12-12T21:11:45.236Z,95538.91
2017-12-12T21:14:12.725Z,95538.61
2017-12-12T21:16:40.204Z,95543.22
2017-12-12T21:19:07.701Z,95552.17
2017-12-12T21:21:35.185Z,95549.07
2017-12-12T21:24:02.644Z,95550.48
2017-12-12T21:26:30.109Z,95554.20
2017-12-12T21:28:57.592Z,95549.91
2017-12-12T21:31:25.968Z,95558.02
2017-12-12T21:33:53.436Z,95562.62
2017-12-12T21:36:20.917Z,95568.15
2017-12-12T21:38:48.381Z,95568.67
2017-12-12T21:41:15.939Z,95579.38
2017-12-12T21:43:43.425Z,95583.55
2017-12-12T21:46:10.901Z,95589.55
2017-12-12T21:48:38.382Z,95597.97
2017-12-12T21:51:05.875Z,95592.72
2017-12-12T21:53:33.349Z,95588.20
2017-12-12T21:56:00.813Z,95590.18
2017-12-12T21:58:28.305Z,95587.72
2017-12-12T22:00:55.769Z,95587.45
2017-12-12T22:03:23.246Z,95577.59
2017-12-12T22:05:50.737Z,95579.27
2017-12-12T22:08:18.201Z,95582.30
2017-12-12T22:10:45.684Z,95583.80
2017-12-12T22:13:13.174Z,95588.99
2017-12-12T22:15:40.642Z,95595.70
2017-12-12T22:18:08.129Z,95589.93
2017-12-12T22:20:35.600Z,95594.85
2017-12-12T22:23:03.093Z,95593.75
2017-12-12T22:25:30.566Z,95598.34
2017-12-12T22:27:58.042Z,95603.70
2017-12-12T22:30:25.539Z,95600.25
2017-12-12T22:32:53.004Z,95602.55
2017-12-12T22:35:20.493Z,95605.42
2017-12-12T22:37:47.965Z,95597.20
2017-12-12T22:40:15.438Z,95596.94
2017-12-12T22:42:42.922Z,95592.94
2017-12-12T22:45:10.397Z,95590.85
2017-12-12T22:47:37.880Z,95599.77
2017-12-12T22:50:05.344Z,95599.11
2017-12-12T22:52:32.817Z,95594.81
2017-12-12T22:55:00.325Z,95594.34
2017-12-12T22:57:27.796Z,95589.97
2017-12-12T22:59:55.282Z,95592.58
2017-12-12T23:02:22.857Z,95589.45
2017-12-12T23:04:50.345Z,95591.77
2017-12-12T23:07:17.817Z,95591.07
2017-12-12T23:09:45.325Z,95590.00
2017-12-12T23:12:12.805Z,95587.87
2017-12-12T23:14:40.278Z,95589.20
2017-12-12T23:17:07.771Z,95581.16
2017-12-12T23:19:35.258Z,95584.56
2017-12-12T23:22:02.749Z,95586.14
2017-12-12T23:24:30.216Z,95589.34
2017-12-12T23:26:57.734Z,95593.09
2017-12-12T23:29:25.250Z,95593.86
2017-12-12T23:31:52.740Z,95593.28
2017-12-12T23:34:20.211Z,95601.27
2017-12-12T23:36:47.697Z,95596.90
2017-12-12T23:39:15.165Z,95601.63
2017-12-12T23:41:42.634Z,95601.81
2017-12-12T23:44:10.129Z,95604.27
2017-12-12T23:46:37.594Z,95605.70
2017-12-12T23:49:05.082Z,95610.25
2017-12-12T23:51:32.564Z,95609.97
2017-12-12T23:54:00.070Z,95607.80
2017-12-12T23:56:27.541Z,95610.30
2017-12-12T23:58:55.024Z,95617.25
